Airfield :
LOGIN :

Register | Disclaimer

   EN    FR    IT 

 










Legend :    VFR   Marginal VFR   IFR   Intensive IFR   Very Intensive IFR
Visi :
Ceiling :
>= 8 km
>= 3000ft
5 to 8 km
1000 to 3000 ft
1500m to 5 km
500 to 1000 ft
800 to 1500m
200 to 500 ft
< 800m
< 200 ft
Symbols :   Thunderstorms  Fog  Heavy snow  Heavy precipitations  Wind > 20 kt
SIGMETs :     Misc.  Thunderstorms  Icing  Turbulence  Mountain Waves  Volcanic Ashes






- Airport Elevation : 28 ft
- IATA code : SOZ


LFKS - Solenzara

CURRENT METAR :
  • 051200Z AUTO 17014KT 9999 ////// 14/11 Q0995

EXPIRED METARs :
  • 051130Z AUTO 20008KT 9999 -RA ////// 13/11 Q0995
  • 051100Z AUTO 15005KT 110V190 9000 RA ////// 13/11 Q0995
  • 051030Z AUTO 17007KT 9999 ////// 13/12 Q0996
  • 051000Z AUTO 19003KT 9999 ////// 13/12 Q0996
  • 050930Z AUTO 16002KT 4500 -RA BR ////// 11/11 Q0996

Expired Forecast.



MET'MAP, your aeronautical weather chart ! - Copyright ORBIFLY December 2007 - Disclaimer

ORBIFLY MET'MAP TEAM :

Programming & Development : Alexandra Zaïnal
Concept & original design : Baudouin d'Aumeries
Assistance for programming : Marc-Olivier Méhu
Technical & hardware support : Manuel Goepfert

Contact : metmap@orbifly.com




SOURCES & CREDITS :

   NOAA